sensor_id;sensor_type;location;lat;lon;timestamp;P1;durP1;ratioP1;P2;durP2;ratioP2
12966;SDS011;6548;49.996;8.238;2023-12-07T00:02:16;14.98;;;6.75;;
12966;SDS011;6548;49.996;8.238;2023-12-07T00:04:42;15.23;;;7.70;;
12966;SDS011;6548;49.996;8.238;2023-12-07T00:07:08;10.70;;;6.75;;
12966;SDS011;6548;49.996;8.238;2023-12-07T00:09:33;10.18;;;6.38;;
12966;SDS011;6548;49.996;8.238;2023-12-07T00:11:59;14.88;;;7.53;;
12966;SDS011;6548;49.996;8.238;2023-12-07T00:14:24;12.57;;;6.75;;
12966;SDS011;6548;49.996;8.238;2023-12-07T00:16:50;12.65;;;6.45;;
12966;SDS011;6548;49.996;8.238;2023-12-07T00:19:15;12.32;;;7.82;;
12966;SDS011;6548;49.996;8.238;2023-12-07T00:21:41;14.35;;;7.55;;
12966;SDS011;6548;49.996;8.238;2023-12-07T00:24:06;11.45;;;6.15;;
12966;SDS011;6548;49.996;8.238;2023-12-07T00:26:32;12.35;;;7.13;;
12966;SDS011;6548;49.996;8.238;2023-12-07T00:28:57;10.65;;;6.85;;
12966;SDS011;6548;49.996;8.238;2023-12-07T00:31:23;12.18;;;6.93;;
12966;SDS011;6548;49.996;8.238;2023-12-07T00:33:48;11.45;;;6.55;;
12966;SDS011;6548;49.996;8.238;2023-12-07T00:36:14;12.60;;;7.22;;
12966;SDS011;6548;49.996;8.238;2023-12-07T00:38:39;13.18;;;7.50;;
12966;SDS011;6548;49.996;8.238;2023-12-07T00:41:06;11.68;;;6.82;;
12966;SDS011;6548;49.996;8.238;2023-12-07T00:43:31;13.77;;;7.47;;
12966;SDS011;6548;49.996;8.238;2023-12-07T00:45:57;12.57;;;6.88;;
12966;SDS011;6548;49.996;8.238;2023-12-07T00:48:22;12.00;;;6.50;;
12966;SDS011;6548;49.996;8.238;2023-12-07T00:50:48;13.38;;;7.03;;
12966;SDS011;6548;49.996;8.238;2023-12-07T00:53:13;14.02;;;6.63;;
12966;SDS011;6548;49.996;8.238;2023-12-07T00:55:39;9.75;;;6.85;;
12966;SDS011;6548;49.996;8.238;2023-12-07T00:58:05;11.60;;;7.28;;
12966;SDS011;6548;49.996;8.238;2023-12-07T01:00:31;13.15;;;7.85;;
12966;SDS011;6548;49.996;8.238;2023-12-07T01:02:56;14.75;;;6.05;;
12966;SDS011;6548;49.996;8.238;2023-12-07T01:05:22;10.07;;;6.72;;
12966;SDS011;6548;49.996;8.238;2023-12-07T01:07:47;14.35;;;7.53;;
12966;SDS011;6548;49.996;8.238;2023-12-07T01:10:13;13.25;;;6.60;;
12966;SDS011;6548;49.996;8.238;2023-12-07T01:12:39;16.30;;;6.93;;
12966;SDS011;6548;49.996;8.238;2023-12-07T01:15:04;15.52;;;9.02;;
12966;SDS011;6548;49.996;8.238;2023-12-07T01:17:30;13.07;;;6.50;;
12966;SDS011;6548;49.996;8.238;2023-12-07T01:19:56;11.93;;;7.07;;
12966;SDS011;6548;49.996;8.238;2023-12-07T01:22:21;16.48;;;7.43;;
12966;SDS011;6548;49.996;8.238;2023-12-07T01:24:47;14.07;;;7.40;;
12966;SDS011;6548;49.996;8.238;2023-12-07T01:27:13;14.15;;;6.78;;
12966;SDS011;6548;49.996;8.238;2023-12-07T01:29:38;11.65;;;6.57;;
12966;SDS011;6548;49.996;8.238;2023-12-07T01:32:04;12.48;;;6.90;;
12966;SDS011;6548;49.996;8.238;2023-12-07T01:34:30;13.50;;;7.75;;
12966;SDS011;6548;49.996;8.238;2023-12-07T01:36:57;11.52;;;6.47;;
12966;SDS011;6548;49.996;8.238;2023-12-07T01:39:23;11.45;;;7.10;;
12966;SDS011;6548;49.996;8.238;2023-12-07T01:41:49;17.35;;;7.60;;
12966;SDS011;6548;49.996;8.238;2023-12-07T01:44:15;12.45;;;7.80;;
12966;SDS011;6548;49.996;8.238;2023-12-07T01:46:40;10.43;;;7.03;;
12966;SDS011;6548;49.996;8.238;2023-12-07T01:49:07;12.50;;;8.00;;
12966;SDS011;6548;49.996;8.238;2023-12-07T01:51:33;18.67;;;7.63;;
12966;SDS011;6548;49.996;8.238;2023-12-07T01:53:59;15.15;;;7.68;;
12966;SDS011;6548;49.996;8.238;2023-12-07T01:56:24;16.40;;;8.23;;
12966;SDS011;6548;49.996;8.238;2023-12-07T01:58:51;18.95;;;7.85;;
12966;SDS011;6548;49.996;8.238;2023-12-07T02:01:16;14.43;;;7.53;;
12966;SDS011;6548;49.996;8.238;2023-12-07T02:03:42;14.52;;;8.50;;
12966;SDS011;6548;49.996;8.238;2023-12-07T02:06:08;15.35;;;8.02;;
12966;SDS011;6548;49.996;8.238;2023-12-07T02:08:35;12.55;;;6.78;;
12966;SDS011;6548;49.996;8.238;2023-12-07T02:11:06;14.98;;;7.70;;
12966;SDS011;6548;49.996;8.238;2023-12-07T02:13:35;13.30;;;6.75;;
12966;SDS011;6548;49.996;8.238;2023-12-07T02:16:07;15.27;;;8.00;;
12966;SDS011;6548;49.996;8.238;2023-12-07T02:21:38;14.23;;;7.72;;
12966;SDS011;6548;49.996;8.238;2023-12-07T02:24:10;12.40;;;7.80;;
12966;SDS011;6548;49.996;8.238;2023-12-07T02:26:39;14.20;;;7.32;;
12966;SDS011;6548;49.996;8.238;2023-12-07T02:29:05;12.57;;;7.68;;
12966;SDS011;6548;49.996;8.238;2023-12-07T02:31:30;14.82;;;7.82;;
12966;SDS011;6548;49.996;8.238;2023-12-07T02:33:56;12.43;;;7.75;;
12966;SDS011;6548;49.996;8.238;2023-12-07T02:36:22;15.15;;;7.72;;
12966;SDS011;6548;49.996;8.238;2023-12-07T02:38:51;13.80;;;7.53;;
12966;SDS011;6548;49.996;8.238;2023-12-07T02:41:21;13.98;;;8.48;;
12966;SDS011;6548;49.996;8.238;2023-12-07T02:43:47;14.82;;;7.78;;
12966;SDS011;6548;49.996;8.238;2023-12-07T02:46:13;12.80;;;7.93;;
12966;SDS011;6548;49.996;8.238;2023-12-07T02:48:39;14.70;;;7.85;;
12966;SDS011;6548;49.996;8.238;2023-12-07T02:51:04;15.50;;;7.72;;
12966;SDS011;6548;49.996;8.238;2023-12-07T02:53:30;11.57;;;7.28;;
12966;SDS011;6548;49.996;8.238;2023-12-07T02:55:55;15.25;;;8.43;;
12966;SDS011;6548;49.996;8.238;2023-12-07T02:58:21;15.15;;;7.32;;
12966;SDS011;6548;49.996;8.238;2023-12-07T03:00:46;11.50;;;7.10;;
12966;SDS011;6548;49.996;8.238;2023-12-07T03:03:12;16.58;;;8.10;;
12966;SDS011;6548;49.996;8.238;2023-12-07T03:05:37;13.90;;;7.88;;
12966;SDS011;6548;49.996;8.238;2023-12-07T03:08:03;14.75;;;7.25;;
12966;SDS011;6548;49.996;8.238;2023-12-07T03:10:28;13.55;;;7.45;;
12966;SDS011;6548;49.996;8.238;2023-12-07T03:12:54;16.77;;;8.18;;
12966;SDS011;6548;49.996;8.238;2023-12-07T03:15:19;13.15;;;8.23;;
12966;SDS011;6548;49.996;8.238;2023-12-07T03:17:45;12.77;;;6.70;;
12966;SDS011;6548;49.996;8.238;2023-12-07T03:20:11;11.63;;;7.10;;
12966;SDS011;6548;49.996;8.238;2023-12-07T03:22:37;12.63;;;7.72;;
12966;SDS011;6548;49.996;8.238;2023-12-07T03:25:03;16.08;;;8.52;;
12966;SDS011;6548;49.996;8.238;2023-12-07T03:27:29;13.07;;;7.93;;
12966;SDS011;6548;49.996;8.238;2023-12-07T03:29:54;16.00;;;9.30;;
12966;SDS011;6548;49.996;8.238;2023-12-07T03:32:20;15.65;;;8.65;;
12966;SDS011;6548;49.996;8.238;2023-12-07T03:34:45;18.73;;;8.45;;
12966;SDS011;6548;49.996;8.238;2023-12-07T03:37:11;17.80;;;8.55;;
12966;SDS011;6548;49.996;8.238;2023-12-07T03:39:36;17.48;;;8.50;;
12966;SDS011;6548;49.996;8.238;2023-12-07T03:42:02;19.50;;;10.23;;
12966;SDS011;6548;49.996;8.238;2023-12-07T03:44:28;15.38;;;8.68;;
12966;SDS011;6548;49.996;8.238;2023-12-07T03:46:54;15.10;;;8.13;;
12966;SDS011;6548;49.996;8.238;2023-12-07T03:49:20;15.88;;;8.50;;
12966;SDS011;6548;49.996;8.238;2023-12-07T03:51:45;14.88;;;8.38;;
12966;SDS011;6548;49.996;8.238;2023-12-07T03:54:11;14.55;;;8.65;;
12966;SDS011;6548;49.996;8.238;2023-12-07T03:56:36;13.52;;;7.72;;
12966;SDS011;6548;49.996;8.238;2023-12-07T03:59:02;13.63;;;7.95;;
12966;SDS011;6548;49.996;8.238;2023-12-07T04:01:28;15.25;;;8.20;;
12966;SDS011;6548;49.996;8.238;2023-12-07T04:03:54;13.70;;;8.48;;
12966;SDS011;6548;49.996;8.238;2023-12-07T04:06:21;15.73;;;7.90;;
12966;SDS011;6548;49.996;8.238;2023-12-07T04:08:47;22.10;;;8.85;;
12966;SDS011;6548;49.996;8.238;2023-12-07T04:11:13;18.98;;;7.50;;
12966;SDS011;6548;49.996;8.238;2023-12-07T04:13:40;13.77;;;8.18;;
12966;SDS011;6548;49.996;8.238;2023-12-07T04:16:06;14.73;;;8.27;;
12966;SDS011;6548;49.996;8.238;2023-12-07T04:18:32;16.50;;;8.50;;
12966;SDS011;6548;49.996;8.238;2023-12-07T04:20:58;17.60;;;8.35;;
12966;SDS011;6548;49.996;8.238;2023-12-07T04:23:23;13.63;;;8.07;;
12966;SDS011;6548;49.996;8.238;2023-12-07T04:25:49;12.52;;;7.85;;
12966;SDS011;6548;49.996;8.238;2023-12-07T04:28:15;14.05;;;8.25;;
12966;SDS011;6548;49.996;8.238;2023-12-07T04:30:40;12.57;;;7.88;;
12966;SDS011;6548;49.996;8.238;2023-12-07T04:33:06;12.82;;;7.88;;
12966;SDS011;6548;49.996;8.238;2023-12-07T04:35:31;15.02;;;8.13;;
12966;SDS011;6548;49.996;8.238;2023-12-07T04:37:57;11.50;;;7.43;;
12966;SDS011;6548;49.996;8.238;2023-12-07T04:40:23;13.98;;;8.38;;
12966;SDS011;6548;49.996;8.238;2023-12-07T04:42:50;15.35;;;7.82;;
12966;SDS011;6548;49.996;8.238;2023-12-07T04:45:16;14.32;;;8.60;;
12966;SDS011;6548;49.996;8.238;2023-12-07T04:47:41;14.02;;;8.05;;
12966;SDS011;6548;49.996;8.238;2023-12-07T04:50:07;17.00;;;8.85;;
12966;SDS011;6548;49.996;8.238;2023-12-07T04:52:34;15.95;;;8.98;;
12966;SDS011;6548;49.996;8.238;2023-12-07T04:55:00;15.80;;;7.70;;
12966;SDS011;6548;49.996;8.238;2023-12-07T04:57:25;14.25;;;7.75;;
12966;SDS011;6548;49.996;8.238;2023-12-07T04:59:51;14.48;;;7.65;;
12966;SDS011;6548;49.996;8.238;2023-12-07T05:02:16;16.42;;;7.70;;
12966;SDS011;6548;49.996;8.238;2023-12-07T05:04:42;14.35;;;8.02;;
12966;SDS011;6548;49.996;8.238;2023-12-07T05:07:08;14.93;;;8.38;;
12966;SDS011;6548;49.996;8.238;2023-12-07T05:09:34;14.10;;;8.07;;
12966;SDS011;6548;49.996;8.238;2023-12-07T05:12:00;25.60;;;10.93;;
12966;SDS011;6548;49.996;8.238;2023-12-07T05:14:26;17.17;;;9.88;;
12966;SDS011;6548;49.996;8.238;2023-12-07T05:16:51;18.85;;;9.93;;
12966;SDS011;6548;49.996;8.238;2023-12-07T05:19:20;19.83;;;10.25;;
12966;SDS011;6548;49.996;8.238;2023-12-07T05:21:49;16.45;;;8.88;;
12966;SDS011;6548;49.996;8.238;2023-12-07T05:24:15;16.33;;;9.07;;
12966;SDS011;6548;49.996;8.238;2023-12-07T05:26:41;22.30;;;13.82;;
12966;SDS011;6548;49.996;8.238;2023-12-07T05:29:07;18.63;;;10.20;;
12966;SDS011;6548;49.996;8.238;2023-12-07T05:31:33;15.35;;;9.40;;
12966;SDS011;6548;49.996;8.238;2023-12-07T05:33:58;19.35;;;9.52;;
12966;SDS011;6548;49.996;8.238;2023-12-07T05:36:24;19.45;;;10.80;;
12966;SDS011;6548;49.996;8.238;2023-12-07T05:38:51;18.15;;;9.27;;
12966;SDS011;6548;49.996;8.238;2023-12-07T05:41:16;17.27;;;9.02;;
12966;SDS011;6548;49.996;8.238;2023-12-07T05:43:42;19.13;;;10.32;;
12966;SDS011;6548;49.996;8.238;2023-12-07T05:46:08;17.88;;;9.65;;
12966;SDS011;6548;49.996;8.238;2023-12-07T05:48:33;17.63;;;9.93;;
12966;SDS011;6548;49.996;8.238;2023-12-07T05:50:59;17.38;;;9.85;;
12966;SDS011;6548;49.996;8.238;2023-12-07T05:53:26;14.68;;;8.25;;
12966;SDS011;6548;49.996;8.238;2023-12-07T05:55:52;16.08;;;9.07;;
12966;SDS011;6548;49.996;8.238;2023-12-07T05:58:19;20.38;;;9.52;;
12966;SDS011;6548;49.996;8.238;2023-12-07T06:00:44;16.90;;;9.50;;
12966;SDS011;6548;49.996;8.238;2023-12-07T06:03:11;19.70;;;9.20;;
12966;SDS011;6548;49.996;8.238;2023-12-07T06:05:40;15.48;;;9.30;;
12966;SDS011;6548;49.996;8.238;2023-12-07T06:08:06;16.65;;;8.55;;
12966;SDS011;6548;49.996;8.238;2023-12-07T06:10:32;16.73;;;9.43;;
12966;SDS011;6548;49.996;8.238;2023-12-07T06:12:57;19.02;;;9.38;;
12966;SDS011;6548;49.996;8.238;2023-12-07T06:15:25;19.40;;;10.05;;
12966;SDS011;6548;49.996;8.238;2023-12-07T06:17:52;17.40;;;9.50;;
12966;SDS011;6548;49.996;8.238;2023-12-07T06:20:18;17.33;;;8.45;;
12966;SDS011;6548;49.996;8.238;2023-12-07T06:22:43;16.15;;;8.80;;
12966;SDS011;6548;49.996;8.238;2023-12-07T06:25:09;15.98;;;9.27;;
12966;SDS011;6548;49.996;8.238;2023-12-07T06:27:35;18.17;;;9.02;;
12966;SDS011;6548;49.996;8.238;2023-12-07T06:30:00;15.82;;;9.77;;
12966;SDS011;6548;49.996;8.238;2023-12-07T06:32:26;13.43;;;8.07;;
12966;SDS011;6548;49.996;8.238;2023-12-07T06:34:52;19.00;;;10.48;;
12966;SDS011;6548;49.996;8.238;2023-12-07T06:37:18;16.73;;;9.65;;
12966;SDS011;6548;49.996;8.238;2023-12-07T06:39:45;19.15;;;10.27;;
12966;SDS011;6548;49.996;8.238;2023-12-07T06:42:10;16.15;;;10.20;;
12966;SDS011;6548;49.996;8.238;2023-12-07T06:44:36;14.57;;;9.27;;
12966;SDS011;6548;49.996;8.238;2023-12-07T06:47:01;22.60;;;9.63;;
12966;SDS011;6548;49.996;8.238;2023-12-07T06:49:29;16.80;;;9.38;;
12966;SDS011;6548;49.996;8.238;2023-12-07T06:51:55;21.25;;;9.82;;
12966;SDS011;6548;49.996;8.238;2023-12-07T06:54:21;19.27;;;9.70;;
12966;SDS011;6548;49.996;8.238;2023-12-07T06:56:47;16.38;;;9.07;;
12966;SDS011;6548;49.996;8.238;2023-12-07T06:59:12;18.27;;;10.45;;
12966;SDS011;6548;49.996;8.238;2023-12-07T07:01:38;17.10;;;9.70;;
12966;SDS011;6548;49.996;8.238;2023-12-07T07:04:04;18.92;;;9.52;;
12966;SDS011;6548;49.996;8.238;2023-12-07T07:06:30;19.23;;;10.55;;
12966;SDS011;6548;49.996;8.238;2023-12-07T07:08:55;18.63;;;10.10;;
12966;SDS011;6548;49.996;8.238;2023-12-07T07:11:21;21.33;;;10.38;;
12966;SDS011;6548;49.996;8.238;2023-12-07T07:13:46;19.40;;;9.35;;
12966;SDS011;6548;49.996;8.238;2023-12-07T07:16:12;19.45;;;10.85;;
12966;SDS011;6548;49.996;8.238;2023-12-07T07:18:38;22.20;;;10.32;;
12966;SDS011;6548;49.996;8.238;2023-12-07T07:21:04;19.15;;;10.63;;
12966;SDS011;6548;49.996;8.238;2023-12-07T07:23:30;15.65;;;9.73;;
12966;SDS011;6548;49.996;8.238;2023-12-07T07:25:55;19.50;;;9.90;;
12966;SDS011;6548;49.996;8.238;2023-12-07T07:28:21;19.65;;;10.13;;
12966;SDS011;6548;49.996;8.238;2023-12-07T07:30:46;17.42;;;10.07;;
12966;SDS011;6548;49.996;8.238;2023-12-07T07:33:12;19.13;;;10.20;;
12966;SDS011;6548;49.996;8.238;2023-12-07T07:35:37;16.67;;;9.85;;
12966;SDS011;6548;49.996;8.238;2023-12-07T07:38:03;15.05;;;9.07;;
12966;SDS011;6548;49.996;8.238;2023-12-07T07:40:29;17.42;;;10.00;;
12966;SDS011;6548;49.996;8.238;2023-12-07T07:42:54;15.52;;;9.43;;
12966;SDS011;6548;49.996;8.238;2023-12-07T07:45:19;18.85;;;9.80;;
12966;SDS011;6548;49.996;8.238;2023-12-07T07:47:45;21.23;;;10.45;;
12966;SDS011;6548;49.996;8.238;2023-12-07T07:50:11;18.40;;;9.55;;
12966;SDS011;6548;49.996;8.238;2023-12-07T07:52:36;17.50;;;10.43;;
12966;SDS011;6548;49.996;8.238;2023-12-07T07:55:02;15.60;;;9.38;;
12966;SDS011;6548;49.996;8.238;2023-12-07T07:57:29;19.90;;;10.57;;
12966;SDS011;6548;49.996;8.238;2023-12-07T07:59:56;20.83;;;9.75;;
12966;SDS011;6548;49.996;8.238;2023-12-07T08:02:22;18.38;;;10.10;;
12966;SDS011;6548;49.996;8.238;2023-12-07T08:04:48;22.05;;;10.82;;
12966;SDS011;6548;49.996;8.238;2023-12-07T08:07:13;17.58;;;10.15;;
12966;SDS011;6548;49.996;8.238;2023-12-07T08:09:39;22.17;;;11.43;;
12966;SDS011;6548;49.996;8.238;2023-12-07T08:12:04;24.13;;;11.23;;
12966;SDS011;6548;49.996;8.238;2023-12-07T08:14:31;22.35;;;11.60;;
12966;SDS011;6548;49.996;8.238;2023-12-07T08:16:57;24.67;;;10.95;;
12966;SDS011;6548;49.996;8.238;2023-12-07T08:19:23;21.35;;;10.63;;
12966;SDS011;6548;49.996;8.238;2023-12-07T08:21:50;25.73;;;11.02;;
12966;SDS011;6548;49.996;8.238;2023-12-07T08:24:15;23.08;;;11.25;;
12966;SDS011;6548;49.996;8.238;2023-12-07T08:26:41;23.73;;;11.20;;
12966;SDS011;6548;49.996;8.238;2023-12-07T08:29:07;22.92;;;11.32;;
12966;SDS011;6548;49.996;8.238;2023-12-07T08:31:32;19.48;;;10.70;;
12966;SDS011;6548;49.996;8.238;2023-12-07T08:33:57;24.33;;;11.45;;
12966;SDS011;6548;49.996;8.238;2023-12-07T08:36:23;20.48;;;11.50;;
12966;SDS011;6548;49.996;8.238;2023-12-07T08:38:48;22.73;;;11.77;;
12966;SDS011;6548;49.996;8.238;2023-12-07T08:41:16;24.08;;;11.70;;
12966;SDS011;6548;49.996;8.238;2023-12-07T08:43:41;26.40;;;12.60;;
12966;SDS011;6548;49.996;8.238;2023-12-07T08:46:07;21.40;;;10.05;;
12966;SDS011;6548;49.996;8.238;2023-12-07T08:48:32;22.98;;;10.63;;
12966;SDS011;6548;49.996;8.238;2023-12-07T08:50:59;26.50;;;11.00;;
12966;SDS011;6548;49.996;8.238;2023-12-07T08:53:25;23.10;;;9.75;;
12966;SDS011;6548;49.996;8.238;2023-12-07T08:55:51;22.55;;;9.40;;
12966;SDS011;6548;49.996;8.238;2023-12-07T08:58:17;18.98;;;8.70;;
12966;SDS011;6548;49.996;8.238;2023-12-07T09:00:43;21.38;;;9.48;;
12966;SDS011;6548;49.996;8.238;2023-12-07T09:03:09;22.40;;;10.43;;
12966;SDS011;6548;49.996;8.238;2023-12-07T09:05:34;18.77;;;9.27;;
12966;SDS011;6548;49.996;8.238;2023-12-07T09:08:00;22.88;;;10.40;;
12966;SDS011;6548;49.996;8.238;2023-12-07T09:10:26;20.08;;;10.00;;
12966;SDS011;6548;49.996;8.238;2023-12-07T09:12:51;22.98;;;10.95;;
12966;SDS011;6548;49.996;8.238;2023-12-07T09:15:17;23.55;;;10.30;;
12966;SDS011;6548;49.996;8.238;2023-12-07T09:17:42;22.80;;;9.57;;
12966;SDS011;6548;49.996;8.238;2023-12-07T09:20:08;21.48;;;8.82;;
12966;SDS011;6548;49.996;8.238;2023-12-07T09:22:40;19.77;;;8.98;;
12966;SDS011;6548;49.996;8.238;2023-12-07T09:25:07;20.98;;;9.45;;
12966;SDS011;6548;49.996;8.238;2023-12-07T09:27:34;23.10;;;9.55;;
12966;SDS011;6548;49.996;8.238;2023-12-07T09:30:02;21.70;;;8.40;;
12966;SDS011;6548;49.996;8.238;2023-12-07T09:32:36;17.48;;;8.00;;
12966;SDS011;6548;49.996;8.238;2023-12-07T09:35:06;23.95;;;10.70;;
12966;SDS011;6548;49.996;8.238;2023-12-07T09:37:33;21.77;;;8.43;;
12966;SDS011;6548;49.996;8.238;2023-12-07T09:39:59;21.85;;;8.95;;
12966;SDS011;6548;49.996;8.238;2023-12-07T09:42:25;18.70;;;7.82;;
12966;SDS011;6548;49.996;8.238;2023-12-07T09:44:51;19.15;;;8.05;;
12966;SDS011;6548;49.996;8.238;2023-12-07T09:47:17;23.85;;;8.52;;
12966;SDS011;6548;49.996;8.238;2023-12-07T09:49:43;21.10;;;10.02;;
12966;SDS011;6548;49.996;8.238;2023-12-07T09:52:09;21.20;;;8.65;;
12966;SDS011;6548;49.996;8.238;2023-12-07T09:54:39;22.35;;;9.65;;
12966;SDS011;6548;49.996;8.238;2023-12-07T09:57:05;20.90;;;9.32;;
12966;SDS011;6548;49.996;8.238;2023-12-07T09:59:31;19.88;;;8.73;;
12966;SDS011;6548;49.996;8.238;2023-12-07T10:01:57;21.42;;;9.73;;
12966;SDS011;6548;49.996;8.238;2023-12-07T10:04:22;39.53;;;12.15;;
12966;SDS011;6548;49.996;8.238;2023-12-07T10:06:51;22.85;;;11.10;;
12966;SDS011;6548;49.996;8.238;2023-12-07T10:09:17;24.05;;;11.48;;
12966;SDS011;6548;49.996;8.238;2023-12-07T10:11:44;24.77;;;10.68;;
12966;SDS011;6548;49.996;8.238;2023-12-07T10:14:10;26.45;;;10.73;;
12966;SDS011;6548;49.996;8.238;2023-12-07T10:16:36;21.38;;;10.35;;
12966;SDS011;6548;49.996;8.238;2023-12-07T10:19:14;22.35;;;9.93;;
12966;SDS011;6548;49.996;8.238;2023-12-07T10:21:44;24.13;;;10.60;;
12966;SDS011;6548;49.996;8.238;2023-12-07T10:24:10;31.05;;;10.98;;
12966;SDS011;6548;49.996;8.238;2023-12-07T10:26:36;27.90;;;10.43;;
12966;SDS011;6548;49.996;8.238;2023-12-07T10:29:07;24.42;;;9.75;;
12966;SDS011;6548;49.996;8.238;2023-12-07T10:31:33;24.90;;;10.63;;
12966;SDS011;6548;49.996;8.238;2023-12-07T10:33:59;25.88;;;11.65;;
12966;SDS011;6548;49.996;8.238;2023-12-07T10:36:26;25.02;;;12.15;;
12966;SDS011;6548;49.996;8.238;2023-12-07T10:38:52;25.90;;;11.85;;
12966;SDS011;6548;49.996;8.238;2023-12-07T10:41:19;25.35;;;11.50;;
12966;SDS011;6548;49.996;8.238;2023-12-07T10:43:48;25.42;;;11.15;;
12966;SDS011;6548;49.996;8.238;2023-12-07T10:46:19;21.50;;;10.27;;
12966;SDS011;6548;49.996;8.238;2023-12-07T10:48:46;22.50;;;10.88;;
12966;SDS011;6548;49.996;8.238;2023-12-07T10:51:14;25.90;;;11.27;;
12966;SDS011;6548;49.996;8.238;2023-12-07T10:53:45;27.98;;;11.75;;
12966;SDS011;6548;49.996;8.238;2023-12-07T10:56:14;24.13;;;10.68;;
12966;SDS011;6548;49.996;8.238;2023-12-07T10:58:46;29.10;;;11.27;;
12966;SDS011;6548;49.996;8.238;2023-12-07T11:01:13;24.92;;;9.50;;
12966;SDS011;6548;49.996;8.238;2023-12-07T11:03:41;25.73;;;9.55;;
12966;SDS011;6548;49.996;8.238;2023-12-07T11:06:09;19.35;;;9.13;;
12966;SDS011;6548;49.996;8.238;2023-12-07T11:08:41;24.58;;;9.90;;
12966;SDS011;6548;49.996;8.238;2023-12-07T11:11:24;21.58;;;9.02;;
12966;SDS011;6548;49.996;8.238;2023-12-07T11:14:06;19.30;;;9.68;;
12966;SDS011;6548;49.996;8.238;2023-12-07T11:16:34;25.85;;;10.90;;
12966;SDS011;6548;49.996;8.238;2023-12-07T11:19:02;27.45;;;11.70;;
12966;SDS011;6548;49.996;8.238;2023-12-07T11:21:28;27.58;;;11.65;;
12966;SDS011;6548;49.996;8.238;2023-12-07T11:23:53;30.40;;;11.68;;
12966;SDS011;6548;49.996;8.238;2023-12-07T11:26:22;27.98;;;12.68;;
12966;SDS011;6548;49.996;8.238;2023-12-07T11:28:49;31.20;;;13.68;;
12966;SDS011;6548;49.996;8.238;2023-12-07T11:31:15;30.17;;;12.65;;
12966;SDS011;6548;49.996;8.238;2023-12-07T11:33:41;36.13;;;13.65;;
12966;SDS011;6548;49.996;8.238;2023-12-07T11:36:08;34.05;;;14.25;;
12966;SDS011;6548;49.996;8.238;2023-12-07T11:38:37;38.38;;;15.48;;
12966;SDS011;6548;49.996;8.238;2023-12-07T11:41:23;40.75;;;15.70;;
12966;SDS011;6548;49.996;8.238;2023-12-07T11:43:49;37.80;;;15.85;;
12966;SDS011;6548;49.996;8.238;2023-12-07T11:46:18;31.60;;;12.45;;
12966;SDS011;6548;49.996;8.238;2023-12-07T11:48:46;32.95;;;13.57;;
12966;SDS011;6548;49.996;8.238;2023-12-07T11:51:13;38.15;;;15.23;;
12966;SDS011;6548;49.996;8.238;2023-12-07T11:53:38;38.30;;;15.50;;
12966;SDS011;6548;49.996;8.238;2023-12-07T11:56:05;44.28;;;17.52;;
12966;SDS011;6548;49.996;8.238;2023-12-07T11:58:32;36.72;;;15.15;;
12966;SDS011;6548;49.996;8.238;2023-12-07T12:00:59;32.90;;;14.30;;
12966;SDS011;6548;49.996;8.238;2023-12-07T12:03:26;38.08;;;14.95;;
12966;SDS011;6548;49.996;8.238;2023-12-07T12:05:52;37.05;;;15.70;;
12966;SDS011;6548;49.996;8.238;2023-12-07T12:08:19;39.00;;;16.02;;
12966;SDS011;6548;49.996;8.238;2023-12-07T12:10:45;40.75;;;15.80;;
12966;SDS011;6548;49.996;8.238;2023-12-07T12:13:12;41.28;;;16.85;;
12966;SDS011;6548;49.996;8.238;2023-12-07T12:15:38;38.55;;;13.23;;
12966;SDS011;6548;49.996;8.238;2023-12-07T12:18:05;38.95;;;15.52;;
12966;SDS011;6548;49.996;8.238;2023-12-07T12:20:31;39.75;;;15.77;;
12966;SDS011;6548;49.996;8.238;2023-12-07T12:22:57;39.50;;;15.15;;
12966;SDS011;6548;49.996;8.238;2023-12-07T12:25:25;35.92;;;15.25;;
12966;SDS011;6548;49.996;8.238;2023-12-07T12:27:53;34.63;;;14.13;;
12966;SDS011;6548;49.996;8.238;2023-12-07T12:30:23;30.90;;;13.43;;
12966;SDS011;6548;49.996;8.238;2023-12-07T12:32:49;36.97;;;14.25;;
12966;SDS011;6548;49.996;8.238;2023-12-07T12:35:15;33.10;;;15.30;;
12966;SDS011;6548;49.996;8.238;2023-12-07T12:37:42;35.80;;;15.23;;
12966;SDS011;6548;49.996;8.238;2023-12-07T12:40:08;33.92;;;14.93;;
12966;SDS011;6548;49.996;8.238;2023-12-07T12:42:35;35.72;;;12.75;;
12966;SDS011;6548;49.996;8.238;2023-12-07T12:45:02;33.95;;;13.20;;
12966;SDS011;6548;49.996;8.238;2023-12-07T12:47:29;34.70;;;14.57;;
12966;SDS011;6548;49.996;8.238;2023-12-07T12:49:54;35.13;;;14.43;;
12966;SDS011;6548;49.996;8.238;2023-12-07T12:52:20;39.97;;;15.55;;
12966;SDS011;6548;49.996;8.238;2023-12-07T12:54:46;39.53;;;15.30;;
12966;SDS011;6548;49.996;8.238;2023-12-07T12:57:14;43.70;;;15.48;;
12966;SDS011;6548;49.996;8.238;2023-12-07T12:59:39;42.50;;;15.45;;
12966;SDS011;6548;49.996;8.238;2023-12-07T13:02:05;42.72;;;16.52;;
12966;SDS011;6548;49.996;8.238;2023-12-07T13:04:31;42.28;;;16.27;;
12966;SDS011;6548;49.996;8.238;2023-12-07T13:06:56;42.72;;;15.93;;
12966;SDS011;6548;49.996;8.238;2023-12-07T13:09:22;32.53;;;15.57;;
12966;SDS011;6548;49.996;8.238;2023-12-07T13:11:48;28.73;;;12.38;;
12966;SDS011;6548;49.996;8.238;2023-12-07T13:14:14;41.05;;;17.75;;
12966;SDS011;6548;49.996;8.238;2023-12-07T13:16:39;31.45;;;13.25;;
12966;SDS011;6548;49.996;8.238;2023-12-07T13:19:05;29.88;;;12.68;;
12966;SDS011;6548;49.996;8.238;2023-12-07T13:21:31;28.25;;;10.93;;
12966;SDS011;6548;49.996;8.238;2023-12-07T13:23:57;30.30;;;12.73;;
12966;SDS011;6548;49.996;8.238;2023-12-07T13:26:23;28.42;;;11.70;;
12966;SDS011;6548;49.996;8.238;2023-12-07T13:28:49;28.75;;;11.55;;
12966;SDS011;6548;49.996;8.238;2023-12-07T13:31:15;32.33;;;12.88;;
12966;SDS011;6548;49.996;8.238;2023-12-07T13:33:40;28.38;;;12.57;;
12966;SDS011;6548;49.996;8.238;2023-12-07T13:36:06;29.25;;;11.10;;
12966;SDS011;6548;49.996;8.238;2023-12-07T13:38:32;33.30;;;12.73;;
12966;SDS011;6548;49.996;8.238;2023-12-07T13:40:59;41.10;;;16.55;;
12966;SDS011;6548;49.996;8.238;2023-12-07T13:43:25;30.67;;;12.70;;
12966;SDS011;6548;49.996;8.238;2023-12-07T13:45:50;26.52;;;11.38;;
12966;SDS011;6548;49.996;8.238;2023-12-07T13:48:18;26.85;;;11.63;;
12966;SDS011;6548;49.996;8.238;2023-12-07T13:50:43;28.77;;;12.82;;
12966;SDS011;6548;49.996;8.238;2023-12-07T13:53:09;25.27;;;9.98;;
12966;SDS011;6548;49.996;8.238;2023-12-07T13:55:38;32.13;;;13.13;;
12966;SDS011;6548;49.996;8.238;2023-12-07T13:58:04;34.72;;;16.17;;
12966;SDS011;6548;49.996;8.238;2023-12-07T14:00:34;28.80;;;13.35;;
12966;SDS011;6548;49.996;8.238;2023-12-07T14:03:01;27.63;;;11.90;;
12966;SDS011;6548;49.996;8.238;2023-12-07T14:05:28;30.70;;;11.65;;
12966;SDS011;6548;49.996;8.238;2023-12-07T14:07:54;33.92;;;13.07;;
12966;SDS011;6548;49.996;8.238;2023-12-07T14:10:21;31.38;;;13.30;;
12966;SDS011;6548;49.996;8.238;2023-12-07T14:12:47;36.53;;;14.55;;
12966;SDS011;6548;49.996;8.238;2023-12-07T14:15:13;36.80;;;14.07;;
12966;SDS011;6548;49.996;8.238;2023-12-07T14:17:38;36.08;;;14.90;;
12966;SDS011;6548;49.996;8.238;2023-12-07T14:22:30;46.33;;;16.08;;
12966;SDS011;6548;49.996;8.238;2023-12-07T14:24:56;42.33;;;17.15;;
12966;SDS011;6548;49.996;8.238;2023-12-07T14:27:21;45.88;;;18.40;;
12966;SDS011;6548;49.996;8.238;2023-12-07T14:29:47;45.08;;;15.25;;
12966;SDS011;6548;49.996;8.238;2023-12-07T14:32:12;48.42;;;17.80;;
12966;SDS011;6548;49.996;8.238;2023-12-07T14:34:38;56.45;;;18.30;;
12966;SDS011;6548;49.996;8.238;2023-12-07T14:37:03;50.83;;;19.17;;
12966;SDS011;6548;49.996;8.238;2023-12-07T14:39:33;49.22;;;18.73;;
12966;SDS011;6548;49.996;8.238;2023-12-07T14:41:59;37.63;;;16.10;;
12966;SDS011;6548;49.996;8.238;2023-12-07T14:44:25;33.13;;;13.35;;